sensor_id;sensor_type;location;lat;lon;timestamp;pressure;altitude;pressure_sealevel;temperature
68440;BMP180;55421;51.600;5.718;2024-02-23T00:01:07;162353.59;;;4.90
68440;BMP180;55421;51.600;5.718;2024-02-23T00:03:50;162359.59;;;4.90
68440;BMP180;55421;51.600;5.718;2024-02-23T00:06:17;162359.59;;;4.90
68440;BMP180;55421;51.600;5.718;2024-02-23T00:08:44;162354.80;;;4.90
68440;BMP180;55421;51.600;5.718;2024-02-23T00:11:10;162344.00;;;4.90
68440;BMP180;55421;51.600;5.718;2024-02-23T00:13:37;162344.41;;;4.90
68440;BMP180;55421;51.600;5.718;2024-02-23T00:16:04;162330.00;;;4.82
68440;BMP180;55421;51.600;5.718;2024-02-23T00:18:30;162324.80;;;4.80
68440;BMP180;55421;51.600;5.718;2024-02-23T00:20:57;162323.59;;;4.82
68440;BMP180;55421;51.600;5.718;2024-02-23T00:23:23;162326.00;;;4.80
68440;BMP180;55421;51.600;5.718;2024-02-23T00:25:50;162317.59;;;4.80
68440;BMP180;55421;51.600;5.718;2024-02-23T00:28:16;162315.59;;;4.80
68440;BMP180;55421;51.600;5.718;2024-02-23T00:30:43;162306.00;;;4.80
68440;BMP180;55421;51.600;5.718;2024-02-23T00:33:10;162305.59;;;4.80
68440;BMP180;55421;51.600;5.718;2024-02-23T00:35:36;162303.20;;;4.80
68440;BMP180;55421;51.600;5.718;2024-02-23T00:38:03;162315.20;;;4.80
68440;BMP180;55421;51.600;5.718;2024-02-23T00:40:30;162329.20;;;4.82
68440;BMP180;55421;51.600;5.718;2024-02-23T00:42:56;162329.20;;;4.86
68440;BMP180;55421;51.600;5.718;2024-02-23T00:45:22;162326.80;;;4.80
68440;BMP180;55421;51.600;5.718;2024-02-23T00:47:49;162330.41;;;4.84
68440;BMP180;55421;51.600;5.718;2024-02-23T00:50:15;162338.41;;;4.90
68440;BMP180;55421;51.600;5.718;2024-02-23T00:52:42;162337.20;;;4.90
68440;BMP180;55421;51.600;5.718;2024-02-23T00:55:09;162347.59;;;4.90
68440;BMP180;55421;51.600;5.718;2024-02-23T00:57:36;162350.00;;;4.90
68440;BMP180;55421;51.600;5.718;2024-02-23T01:00:05;162351.20;;;4.90
68440;BMP180;55421;51.600;5.718;2024-02-23T01:02:32;162352.41;;;4.90
68440;BMP180;55421;51.600;5.718;2024-02-23T01:04:59;162358.00;;;4.90
68440;BMP180;55421;51.600;5.718;2024-02-23T01:07:26;162351.20;;;4.90
68440;BMP180;55421;51.600;5.718;2024-02-23T01:09:52;162350.00;;;4.90
68440;BMP180;55421;51.600;5.718;2024-02-23T01:12:19;162341.59;;;4.90
68440;BMP180;55421;51.600;5.718;2024-02-23T01:14:45;162341.59;;;4.90
68440;BMP180;55421;51.600;5.718;2024-02-23T01:17:15;162339.59;;;4.90
68440;BMP180;55421;51.600;5.718;2024-02-23T01:19:43;162326.80;;;4.80
68440;BMP180;55421;51.600;5.718;2024-02-23T01:22:11;162328.00;;;4.80
68440;BMP180;55421;51.600;5.718;2024-02-23T01:24:37;162329.20;;;4.82
68440;BMP180;55421;51.600;5.718;2024-02-23T01:27:04;162324.80;;;4.80
68440;BMP180;55421;51.600;5.718;2024-02-23T01:29:30;162320.00;;;4.80
68440;BMP180;55421;51.600;5.718;2024-02-23T01:32:00;162320.80;;;4.80
68440;BMP180;55421;51.600;5.718;2024-02-23T01:34:26;162326.80;;;4.80
68440;BMP180;55421;51.600;5.718;2024-02-23T01:36:53;162323.59;;;4.80
68440;BMP180;55421;51.600;5.718;2024-02-23T01:39:19;162313.80;;;4.80
68440;BMP180;55421;51.600;5.718;2024-02-23T01:41:46;162315.20;;;4.80
68440;BMP180;55421;51.600;5.718;2024-02-23T01:44:13;162304.80;;;4.80
68440;BMP180;55421;51.600;5.718;2024-02-23T01:46:41;162306.00;;;4.80
68440;BMP180;55421;51.600;5.718;2024-02-23T01:49:09;162307.41;;;4.80
68440;BMP180;55421;51.600;5.718;2024-02-23T01:51:36;162304.80;;;4.80
68440;BMP180;55421;51.600;5.718;2024-02-23T01:54:03;162305.59;;;4.80
68440;BMP180;55421;51.600;5.718;2024-02-23T01:56:32;162307.41;;;4.80
68440;BMP180;55421;51.600;5.718;2024-02-23T01:59:01;162317.59;;;4.80
68440;BMP180;55421;51.600;5.718;2024-02-23T02:01:31;162313.00;;;4.80
68440;BMP180;55421;51.600;5.718;2024-02-23T02:04:00;162312.59;;;4.80
68440;BMP180;55421;51.600;5.718;2024-02-23T02:06:27;162315.20;;;4.80
68440;BMP180;55421;51.600;5.718;2024-02-23T02:08:54;162305.59;;;4.80
68440;BMP180;55421;51.600;5.718;2024-02-23T02:11:21;162307.41;;;4.80
68440;BMP180;55421;51.600;5.718;2024-02-23T02:13:47;162305.59;;;4.80
68440;BMP180;55421;51.600;5.718;2024-02-23T02:16:14;162305.59;;;4.80
68440;BMP180;55421;51.600;5.718;2024-02-23T02:18:40;162312.59;;;4.80
68440;BMP180;55421;51.600;5.718;2024-02-23T02:21:07;162305.59;;;4.80
68440;BMP180;55421;51.600;5.718;2024-02-23T02:23:33;162303.00;;;4.80
68440;BMP180;55421;51.600;5.718;2024-02-23T02:26:00;162294.41;;;4.80
68440;BMP180;55421;51.600;5.718;2024-02-23T02:28:26;162291.00;;;4.80
68440;BMP180;55421;51.600;5.718;2024-02-23T02:30:53;162288.59;;;4.78
68440;BMP180;55421;51.600;5.718;2024-02-23T02:33:21;162284.20;;;4.72
68440;BMP180;55421;51.600;5.718;2024-02-23T02:35:48;162280.59;;;4.70
68440;BMP180;55421;51.600;5.718;2024-02-23T02:38:16;162269.80;;;4.70
68440;BMP180;55421;51.600;5.718;2024-02-23T02:40:42;162263.00;;;4.70
68440;BMP180;55421;51.600;5.718;2024-02-23T02:43:09;162263.41;;;4.70
68440;BMP180;55421;51.600;5.718;2024-02-23T02:45:35;162253.41;;;4.68
68440;BMP180;55421;51.600;5.718;2024-02-23T02:48:03;162253.41;;;4.70
68440;BMP180;55421;51.600;5.718;2024-02-23T02:50:31;162246.59;;;4.62
68440;BMP180;55421;51.600;5.718;2024-02-23T02:52:57;162237.41;;;4.60
68440;BMP180;55421;51.600;5.718;2024-02-23T02:55:24;162231.00;;;4.60
68440;BMP180;55421;51.600;5.718;2024-02-23T02:57:50;162225.41;;;4.60
68440;BMP180;55421;51.600;5.718;2024-02-23T03:00:17;162215.41;;;4.60
68440;BMP180;55421;51.600;5.718;2024-02-23T03:02:43;162197.41;;;4.56
68440;BMP180;55421;51.600;5.718;2024-02-23T03:05:10;162188.00;;;4.50
68440;BMP180;55421;51.600;5.718;2024-02-23T03:07:37;162171.20;;;4.50
68440;BMP180;55421;51.600;5.718;2024-02-23T03:10:04;162169.20;;;4.50
68440;BMP180;55421;51.600;5.718;2024-02-23T03:12:31;162164.80;;;4.50
68440;BMP180;55421;51.600;5.718;2024-02-23T03:14:58;162166.00;;;4.50
68440;BMP180;55421;51.600;5.718;2024-02-23T03:17:24;162163.59;;;4.50
68440;BMP180;55421;51.600;5.718;2024-02-23T03:19:51;162160.00;;;4.50
68440;BMP180;55421;51.600;5.718;2024-02-23T03:22:17;162156.41;;;4.44
68440;BMP180;55421;51.600;5.718;2024-02-23T03:24:44;162155.59;;;4.42
68440;BMP180;55421;51.600;5.718;2024-02-23T03:27:10;162158.80;;;4.48
68440;BMP180;55421;51.600;5.718;2024-02-23T03:29:38;162161.20;;;4.42
68440;BMP180;55421;51.600;5.718;2024-02-23T03:32:06;162162.41;;;4.50
68440;BMP180;55421;51.600;5.718;2024-02-23T03:34:33;162166.00;;;4.50
68440;BMP180;55421;51.600;5.718;2024-02-23T03:36:59;162161.20;;;4.48
68440;BMP180;55421;51.600;5.718;2024-02-23T03:39:29;162154.41;;;4.40
68440;BMP180;55421;51.600;5.718;2024-02-23T03:41:55;162136.80;;;4.40
68440;BMP180;55421;51.600;5.718;2024-02-23T03:44:22;162122.41;;;4.40
68440;BMP180;55421;51.600;5.718;2024-02-23T03:46:48;162117.59;;;4.32
68440;BMP180;55421;51.600;5.718;2024-02-23T03:49:15;162112.00;;;4.30
68440;BMP180;55421;51.600;5.718;2024-02-23T03:51:41;162108.00;;;4.30
68440;BMP180;55421;51.600;5.718;2024-02-23T03:54:08;162106.00;;;4.30
68440;BMP180;55421;51.600;5.718;2024-02-23T03:56:39;162099.20;;;4.30
68440;BMP180;55421;51.600;5.718;2024-02-23T03:59:08;162101.59;;;4.30
68440;BMP180;55421;51.600;5.718;2024-02-23T04:01:38;162102.80;;;4.30
68440;BMP180;55421;51.600;5.718;2024-02-23T04:04:06;162107.20;;;4.30
68440;BMP180;55421;51.600;5.718;2024-02-23T04:06:34;162116.41;;;4.38
68440;BMP180;55421;51.600;5.718;2024-02-23T04:09:00;162136.80;;;4.40
68440;BMP180;55421;51.600;5.718;2024-02-23T04:11:27;162142.41;;;4.40
68440;BMP180;55421;51.600;5.718;2024-02-23T04:13:54;162151.20;;;4.42
68440;BMP180;55421;51.600;5.718;2024-02-23T04:16:24;162163.59;;;4.50
68440;BMP180;55421;51.600;5.718;2024-02-23T04:18:51;162169.20;;;4.50
68440;BMP180;55421;51.600;5.718;2024-02-23T04:21:17;162186.00;;;4.50
68440;BMP180;55421;51.600;5.718;2024-02-23T04:23:44;162195.00;;;4.52
68440;BMP180;55421;51.600;5.718;2024-02-23T04:26:11;162205.00;;;4.60
68440;BMP180;55421;51.600;5.718;2024-02-23T04:28:39;162216.59;;;4.60
68440;BMP180;55421;51.600;5.718;2024-02-23T04:31:06;162207.00;;;4.60
68440;BMP180;55421;51.600;5.718;2024-02-23T04:33:34;162191.41;;;4.50
68440;BMP180;55421;51.600;5.718;2024-02-23T04:36:03;162180.41;;;4.50
68440;BMP180;55421;51.600;5.718;2024-02-23T04:38:31;162162.41;;;4.48
68440;BMP180;55421;51.600;5.718;2024-02-23T04:40:58;162148.00;;;4.40
68440;BMP180;55421;51.600;5.718;2024-02-23T04:43:25;162141.20;;;4.40
68440;BMP180;55421;51.600;5.718;2024-02-23T04:45:51;162146.00;;;4.40
68440;BMP180;55421;51.600;5.718;2024-02-23T04:48:18;162161.20;;;4.50
68440;BMP180;55421;51.600;5.718;2024-02-23T04:50:44;162177.41;;;4.50
68440;BMP180;55421;51.600;5.718;2024-02-23T04:53:11;162195.80;;;4.54
68440;BMP180;55421;51.600;5.718;2024-02-23T04:55:37;162217.80;;;4.60
68440;BMP180;55421;51.600;5.718;2024-02-23T04:58:04;162229.80;;;4.60
68440;BMP180;55421;51.600;5.718;2024-02-23T05:00:31;162236.20;;;4.60
68440;BMP180;55421;51.600;5.718;2024-02-23T05:03:03;162239.80;;;4.60
68440;BMP180;55421;51.600;5.718;2024-02-23T05:05:30;162239.80;;;4.60
68440;BMP180;55421;51.600;5.718;2024-02-23T05:07:58;162241.80;;;4.62
68440;BMP180;55421;51.600;5.718;2024-02-23T05:10:26;162248.59;;;4.64
68440;BMP180;55421;51.600;5.718;2024-02-23T05:12:53;162251.41;;;4.68
68440;BMP180;55421;51.600;5.718;2024-02-23T05:15:19;162256.59;;;4.70
68440;BMP180;55421;51.600;5.718;2024-02-23T05:17:46;162265.41;;;4.70
68440;BMP180;55421;51.600;5.718;2024-02-23T05:20:13;162279.80;;;4.70
68440;BMP180;55421;51.600;5.718;2024-02-23T05:22:40;162294.59;;;4.80
68440;BMP180;55421;51.600;5.718;2024-02-23T05:25:07;162301.80;;;4.80
68440;BMP180;55421;51.600;5.718;2024-02-23T05:27:34;162311.20;;;4.80
68440;BMP180;55421;51.600;5.718;2024-02-23T05:30:00;162316.80;;;4.80
68440;BMP180;55421;51.600;5.718;2024-02-23T05:32:27;162330.00;;;4.86
68440;BMP180;55421;51.600;5.718;2024-02-23T05:34:53;162335.20;;;4.90
68440;BMP180;55421;51.600;5.718;2024-02-23T05:37:20;162337.59;;;4.90
68440;BMP180;55421;51.600;5.718;2024-02-23T05:39:47;162342.80;;;4.90
68440;BMP180;55421;51.600;5.718;2024-02-23T05:42:13;162344.00;;;4.90
68440;BMP180;55421;51.600;5.718;2024-02-23T05:44:43;162345.20;;;4.90
68440;BMP180;55421;51.600;5.718;2024-02-23T05:47:09;162352.41;;;4.90
68440;BMP180;55421;51.600;5.718;2024-02-23T05:49:36;162356.00;;;4.90
68440;BMP180;55421;51.600;5.718;2024-02-23T05:52:03;162363.59;;;4.90
68440;BMP180;55421;51.600;5.718;2024-02-23T05:54:30;162370.00;;;4.94
68440;BMP180;55421;51.600;5.718;2024-02-23T05:56:56;162379.59;;;5.00
68440;BMP180;55421;51.600;5.718;2024-02-23T05:59:23;162388.41;;;5.00
68440;BMP180;55421;51.600;5.718;2024-02-23T06:01:49;162396.41;;;5.00
68440;BMP180;55421;51.600;5.718;2024-02-23T06:04:15;162404.80;;;5.00
68440;BMP180;55421;51.600;5.718;2024-02-23T06:06:42;162403.59;;;5.00
68440;BMP180;55421;51.600;5.718;2024-02-23T06:09:12;162397.59;;;5.00
68440;BMP180;55421;51.600;5.718;2024-02-23T06:11:38;162402.41;;;5.00
68440;BMP180;55421;51.600;5.718;2024-02-23T06:14:05;162406.00;;;5.00
68440;BMP180;55421;51.600;5.718;2024-02-23T06:16:31;162402.41;;;5.00
68440;BMP180;55421;51.600;5.718;2024-02-23T06:18:58;162406.00;;;5.00
68440;BMP180;55421;51.600;5.718;2024-02-23T06:21:24;162418.41;;;5.04
68440;BMP180;55421;51.600;5.718;2024-02-23T06:23:51;162418.41;;;5.02
68440;BMP180;55421;51.600;5.718;2024-02-23T06:26:17;162422.00;;;5.10
68440;BMP180;55421;51.600;5.718;2024-02-23T06:28:44;162427.41;;;5.10
68440;BMP180;55421;51.600;5.718;2024-02-23T06:31:10;162436.80;;;5.10
68440;BMP180;55421;51.600;5.718;2024-02-23T06:33:37;162437.41;;;5.10
68440;BMP180;55421;51.600;5.718;2024-02-23T06:36:04;162433.59;;;5.10
68440;BMP180;55421;51.600;5.718;2024-02-23T06:38:31;162428.41;;;5.10
68440;BMP180;55421;51.600;5.718;2024-02-23T06:40:57;162425.41;;;5.10
68440;BMP180;55421;51.600;5.718;2024-02-23T06:43:24;162430.80;;;5.10
68440;BMP180;55421;51.600;5.718;2024-02-23T06:45:51;162436.80;;;5.10
68440;BMP180;55421;51.600;5.718;2024-02-23T06:48:18;162437.41;;;5.10
68440;BMP180;55421;51.600;5.718;2024-02-23T06:50:45;162440.20;;;5.10
68440;BMP180;55421;51.600;5.718;2024-02-23T06:53:11;162448.59;;;5.12
68440;BMP180;55421;51.600;5.718;2024-02-23T06:55:38;162449.80;;;5.10
68440;BMP180;55421;51.600;5.718;2024-02-23T06:58:05;162447.80;;;5.10
68440;BMP180;55421;51.600;5.718;2024-02-23T07:00:33;162446.59;;;5.10
68440;BMP180;55421;51.600;5.718;2024-02-23T07:02:59;162447.00;;;5.10
68440;BMP180;55421;51.600;5.718;2024-02-23T07:05:29;162445.80;;;5.10
68440;BMP180;55421;51.600;5.718;2024-02-23T07:07:57;162451.00;;;5.10
68440;BMP180;55421;51.600;5.718;2024-02-23T07:10:23;162456.20;;;5.12
68440;BMP180;55421;51.600;5.718;2024-02-23T07:12:51;162462.20;;;5.20
68440;BMP180;55421;51.600;5.718;2024-02-23T07:15:22;162472.59;;;5.20
68440;BMP180;55421;51.600;5.718;2024-02-23T07:17:49;162486.59;;;5.20
68440;BMP180;55421;51.600;5.718;2024-02-23T07:20:16;162487.80;;;5.20
68440;BMP180;55421;51.600;5.718;2024-02-23T07:22:44;162509.41;;;5.26
68440;BMP180;55421;51.600;5.718;2024-02-23T07:25:19;162514.59;;;5.30
68440;BMP180;55421;51.600;5.718;2024-02-23T07:27:50;162518.59;;;5.30
68440;BMP180;55421;51.600;5.718;2024-02-23T07:30:17;162521.80;;;5.30
68440;BMP180;55421;51.600;5.718;2024-02-23T07:32:44;162520.59;;;5.30
68440;BMP180;55421;51.600;5.718;2024-02-23T07:35:11;162524.20;;;5.30
68440;BMP180;55421;51.600;5.718;2024-02-23T07:37:37;162532.20;;;5.30
68440;BMP180;55421;51.600;5.718;2024-02-23T07:40:05;162537.00;;;5.30
68440;BMP180;55421;51.600;5.718;2024-02-23T07:42:32;162541.00;;;5.30
68440;BMP180;55421;51.600;5.718;2024-02-23T07:44:59;162551.41;;;5.38
68440;BMP180;55421;51.600;5.718;2024-02-23T07:47:25;162569.00;;;5.40
68440;BMP180;55421;51.600;5.718;2024-02-23T07:49:56;162588.00;;;5.42
68440;BMP180;55421;51.600;5.718;2024-02-23T07:52:22;162602.00;;;5.50
68440;BMP180;55421;51.600;5.718;2024-02-23T07:54:52;162626.80;;;5.50
68440;BMP180;55421;51.600;5.718;2024-02-23T07:57:19;162646.00;;;5.60
68440;BMP180;55421;51.600;5.718;2024-02-23T07:59:47;162681.80;;;5.70
68440;BMP180;55421;51.600;5.718;2024-02-23T08:02:14;162720.20;;;5.80
68440;BMP180;55421;51.600;5.718;2024-02-23T08:04:41;162742.20;;;5.80
68440;BMP180;55421;51.600;5.718;2024-02-23T08:07:09;162763.00;;;5.90
68440;BMP180;55421;51.600;5.718;2024-02-23T08:09:36;162781.41;;;5.90
68440;BMP180;55421;51.600;5.718;2024-02-23T08:12:03;162783.80;;;5.90
68440;BMP180;55421;51.600;5.718;2024-02-23T08:14:30;162785.00;;;5.90
68440;BMP180;55421;51.600;5.718;2024-02-23T08:16:57;162788.20;;;5.90
68440;BMP180;55421;51.600;5.718;2024-02-23T08:19:24;162783.80;;;5.90
68440;BMP180;55421;51.600;5.718;2024-02-23T08:21:50;162780.20;;;5.90
68440;BMP180;55421;51.600;5.718;2024-02-23T08:24:17;162779.00;;;5.90
68440;BMP180;55421;51.600;5.718;2024-02-23T08:26:43;162787.00;;;5.90
68440;BMP180;55421;51.600;5.718;2024-02-23T08:29:10;162797.41;;;5.90
68440;BMP180;55421;51.600;5.718;2024-02-23T08:31:37;162811.80;;;5.96
68440;BMP180;55421;51.600;5.718;2024-02-23T08:34:03;162824.00;;;6.00
68440;BMP180;55421;51.600;5.718;2024-02-23T08:36:30;162840.00;;;6.00
68440;BMP180;55421;51.600;5.718;2024-02-23T08:38:56;162847.59;;;6.00
68440;BMP180;55421;51.600;5.718;2024-02-23T08:41:23;162845.20;;;6.00
68440;BMP180;55421;51.600;5.718;2024-02-23T08:43:49;162847.59;;;6.00
68440;BMP180;55421;51.600;5.718;2024-02-23T08:46:16;162847.59;;;6.00
68440;BMP180;55421;51.600;5.718;2024-02-23T08:48:42;162856.80;;;6.10
68440;BMP180;55421;51.600;5.718;2024-02-23T08:51:09;162882.80;;;6.10
68440;BMP180;55421;51.600;5.718;2024-02-23T08:53:36;162899.80;;;6.20
68440;BMP180;55421;51.600;5.718;2024-02-23T08:56:03;162907.41;;;6.20
68440;BMP180;55421;51.600;5.718;2024-02-23T08:58:30;162915.41;;;6.20
68440;BMP180;55421;51.600;5.718;2024-02-23T09:00:56;162924.59;;;6.20
68440;BMP180;55421;51.600;5.718;2024-02-23T09:03:22;162952.59;;;6.30
68440;BMP180;55421;51.600;5.718;2024-02-23T09:05:49;162978.20;;;6.40
68440;BMP180;55421;51.600;5.718;2024-02-23T09:08:16;162991.41;;;6.40
68440;BMP180;55421;51.600;5.718;2024-02-23T09:10:43;162991.41;;;6.40
68440;BMP180;55421;51.600;5.718;2024-02-23T09:13:10;162996.20;;;6.40
68440;BMP180;55421;51.600;5.718;2024-02-23T09:15:37;162999.41;;;6.40
68440;BMP180;55421;51.600;5.718;2024-02-23T09:18:04;163015.80;;;6.40
68440;BMP180;55421;51.600;5.718;2024-02-23T09:20:31;163024.20;;;6.50
68440;BMP180;55421;51.600;5.718;2024-02-23T09:22:57;163037.80;;;6.50
68440;BMP180;55421;51.600;5.718;2024-02-23T09:25:25;163043.00;;;6.50
68440;BMP180;55421;51.600;5.718;2024-02-23T09:27:51;163053.59;;;6.52
68440;BMP180;55421;51.600;5.718;2024-02-23T09:30:18;163047.20;;;6.50
68440;BMP180;55421;51.600;5.718;2024-02-23T09:32:46;163046.59;;;6.50
68440;BMP180;55421;51.600;5.718;2024-02-23T09:35:13;163040.80;;;6.50
68440;BMP180;55421;51.600;5.718;2024-02-23T09:37:40;163054.00;;;6.50
68440;BMP180;55421;51.600;5.718;2024-02-23T09:40:07;163061.20;;;6.58
68440;BMP180;55421;51.600;5.718;2024-02-23T09:42:34;163077.20;;;6.60
68440;BMP180;55421;51.600;5.718;2024-02-23T09:45:01;163096.80;;;6.60
68440;BMP180;55421;51.600;5.718;2024-02-23T09:47:28;163128.00;;;6.70
68440;BMP180;55421;51.600;5.718;2024-02-23T09:49:55;163154.20;;;6.78
68440;BMP180;55421;51.600;5.718;2024-02-23T09:52:22;163169.41;;;6.80
68440;BMP180;55421;51.600;5.718;2024-02-23T09:54:49;163170.59;;;6.80
68440;BMP180;55421;51.600;5.718;2024-02-23T09:57:17;163170.20;;;6.80
68440;BMP180;55421;51.600;5.718;2024-02-23T09:59:48;163166.20;;;6.80
68440;BMP180;55421;51.600;5.718;2024-02-23T10:02:16;163166.20;;;6.80
68440;BMP180;55421;51.600;5.718;2024-02-23T10:04:44;163172.59;;;6.80
68440;BMP180;55421;51.600;5.718;2024-02-23T10:07:14;163157.80;;;6.80
68440;BMP180;55421;51.600;5.718;2024-02-23T10:09:42;163145.00;;;6.70
68440;BMP180;55421;51.600;5.718;2024-02-23T10:12:08;163138.41;;;6.70
68440;BMP180;55421;51.600;5.718;2024-02-23T10:14:35;163138.80;;;6.70
68440;BMP180;55421;51.600;5.718;2024-02-23T10:17:01;163130.80;;;6.70
68440;BMP180;55421;51.600;5.718;2024-02-23T10:19:28;163111.59;;;6.70
68440;BMP180;55421;51.600;5.718;2024-02-23T10:21:56;163093.20;;;6.60
68440;BMP180;55421;51.600;5.718;2024-02-23T10:24:23;163078.41;;;6.60
68440;BMP180;55421;51.600;5.718;2024-02-23T10:26:53;163067.20;;;6.60
68440;BMP180;55421;51.600;5.718;2024-02-23T10:29:19;163064.80;;;6.56
68440;BMP180;55421;51.600;5.718;2024-02-23T10:31:47;163063.59;;;6.60
68440;BMP180;55421;51.600;5.718;2024-02-23T10:34:19;163066.00;;;6.60
68440;BMP180;55421;51.600;5.718;2024-02-23T10:36:46;163068.41;;;6.60
68440;BMP180;55421;51.600;5.718;2024-02-23T10:39:18;163071.59;;;6.60
68440;BMP180;55421;51.600;5.718;2024-02-23T10:41:56;163082.00;;;6.60
68440;BMP180;55421;51.600;5.718;2024-02-23T10:44:24;163084.00;;;6.60
68440;BMP180;55421;51.600;5.718;2024-02-23T10:46:53;163088.41;;;6.60
68440;BMP180;55421;51.600;5.718;2024-02-23T10:49:24;163090.80;;;6.60
68440;BMP180;55421;51.600;5.718;2024-02-23T10:51:54;163100.00;;;6.60
68440;BMP180;55421;51.600;5.718;2024-02-23T10:54:21;163109.20;;;6.62
68440;BMP180;55421;51.600;5.718;2024-02-23T10:56:50;163114.00;;;6.68
68440;BMP180;55421;51.600;5.718;2024-02-23T10:59:18;163122.41;;;6.70
68440;BMP180;55421;51.600;5.718;2024-02-23T11:01:49;163131.59;;;6.70
68440;BMP180;55421;51.600;5.718;2024-02-23T11:04:17;163137.20;;;6.70
68440;BMP180;55421;51.600;5.718;2024-02-23T11:06:55;163147.00;;;6.70
68440;BMP180;55421;51.600;5.718;2024-02-23T11:09:25;163140.00;;;6.70
68440;BMP180;55421;51.600;5.718;2024-02-23T11:11:57;163139.59;;;6.70
68440;BMP180;55421;51.600;5.718;2024-02-23T11:14:34;163131.59;;;6.70
68440;BMP180;55421;51.600;5.718;2024-02-23T11:17:03;163126.00;;;6.70
68440;BMP180;55421;51.600;5.718;2024-02-23T11:19:39;163126.41;;;6.70
68440;BMP180;55421;51.600;5.718;2024-02-23T11:22:10;163136.00;;;6.70
68440;BMP180;55421;51.600;5.718;2024-02-23T11:24:44;163152.00;;;6.72
68440;BMP180;55421;51.600;5.718;2024-02-23T11:27:15;163157.41;;;6.80
68440;BMP180;55421;51.600;5.718;2024-02-23T11:29:47;163182.59;;;6.80
68440;BMP180;55421;51.600;5.718;2024-02-23T11:32:17;163193.41;;;6.90
68440;BMP180;55421;51.600;5.718;2024-02-23T11:34:57;163202.20;;;6.90
68440;BMP180;55421;51.600;5.718;2024-02-23T11:37:23;163213.80;;;6.90
68440;BMP180;55421;51.600;5.718;2024-02-23T11:39:50;163215.00;;;6.90
68440;BMP180;55421;51.600;5.718;2024-02-23T11:42:17;163217.41;;;6.90
68440;BMP180;55421;51.600;5.718;2024-02-23T11:44:45;163224.59;;;6.90
68440;BMP180;55421;51.600;5.718;2024-02-23T11:47:11;163255.80;;;7.00
68440;BMP180;55421;51.600;5.718;2024-02-23T11:49:37;163287.59;;;7.10
68440;BMP180;55421;51.600;5.718;2024-02-23T11:52:04;163314.00;;;7.10
68440;BMP180;55421;51.600;5.718;2024-02-23T11:54:31;163350.41;;;7.20
68440;BMP180;55421;51.600;5.718;2024-02-23T11:56:57;163377.59;;;7.30
68440;BMP180;55421;51.600;5.718;2024-02-23T11:59:24;163392.00;;;7.30
68440;BMP180;55421;51.600;5.718;2024-02-23T12:01:51;163424.59;;;7.40
68440;BMP180;55421;51.600;5.718;2024-02-23T12:04:17;163463.00;;;7.50
68440;BMP180;55421;51.600;5.718;2024-02-23T12:06:44;163487.00;;;7.50
68440;BMP180;55421;51.600;5.718;2024-02-23T12:09:13;163500.59;;;7.60
68440;BMP180;55421;51.600;5.718;2024-02-23T12:11:41;163505.41;;;7.60
68440;BMP180;55421;51.600;5.718;2024-02-23T12:14:08;163505.41;;;7.60
68440;BMP180;55421;51.600;5.718;2024-02-23T12:16:35;163511.41;;;7.60
68440;BMP180;55421;51.600;5.718;2024-02-23T12:19:05;163522.20;;;7.60
68440;BMP180;55421;51.600;5.718;2024-02-23T12:21:34;163517.00;;;7.60
68440;BMP180;55421;51.600;5.718;2024-02-23T12:24:05;163509.41;;;7.60
68440;BMP180;55421;51.600;5.718;2024-02-23T12:26:35;163501.00;;;7.60
68440;BMP180;55421;51.600;5.718;2024-02-23T12:29:03;163490.20;;;7.50
68440;BMP180;55421;51.600;5.718;2024-02-23T12:31:32;163475.00;;;7.50
68440;BMP180;55421;51.600;5.718;2024-02-23T12:33:58;163472.59;;;7.50
68440;BMP180;55421;51.600;5.718;2024-02-23T12:36:25;163469.00;;;7.50
68440;BMP180;55421;51.600;5.718;2024-02-23T12:38:51;163466.59;;;7.50
68440;BMP180;55421;51.600;5.718;2024-02-23T12:41:18;163467.80;;;7.50
68440;BMP180;55421;51.600;5.718;2024-02-23T12:43:44;163469.00;;;7.50
68440;BMP180;55421;51.600;5.718;2024-02-23T12:46:11;163472.59;;;7.50
68440;BMP180;55421;51.600;5.718;2024-02-23T12:48:40;163498.59;;;7.60
68440;BMP180;55421;51.600;5.718;2024-02-23T12:51:06;163507.80;;;7.60
68440;BMP180;55421;51.600;5.718;2024-02-23T12:53:40;163510.20;;;7.60
68440;BMP180;55421;51.600;5.718;2024-02-23T12:56:08;163528.59;;;7.60
68440;BMP180;55421;51.600;5.718;2024-02-23T12:58:37;163567.59;;;7.70
68440;BMP180;55421;51.600;5.718;2024-02-23T13:01:04;163644.41;;;7.90
68440;BMP180;55421;51.600;5.718;2024-02-23T13:03:34;163657.80;;;8.08
68440;BMP180;55421;51.600;5.718;2024-02-23T13:06:04;163739.80;;;8.10
68440;BMP180;55421;51.600;5.718;2024-02-23T13:08:31;163764.20;;;8.20
68440;BMP180;55421;51.600;5.718;2024-02-23T13:10:57;162363.41;;;8.20
68440;BMP180;55421;51.600;5.718;2024-02-23T13:13:24;162686.80;;;8.12
68440;BMP180;55421;51.600;5.718;2024-02-23T13:15:54;163545.59;;;8.10
68440;BMP180;55421;51.600;5.718;2024-02-23T13:18:21;163324.20;;;8.10
68440;BMP180;55421;51.600;5.718;2024-02-23T13:20:48;161752.20;;;8.10
68440;BMP180;55421;51.600;5.718;2024-02-23T13:23:15;162546.00;;;8.08
68440;BMP180;55421;51.600;5.718;2024-02-23T13:25:43;162821.59;;;8.02
68440;BMP180;55421;51.600;5.718;2024-02-23T13:28:10;162428.00;;;8.00
68440;BMP180;55421;51.600;5.718;2024-02-23T13:30:38;162173.59;;;8.00
68440;BMP180;55421;51.600;5.718;2024-02-23T13:33:05;161756.41;;;8.00
68440;BMP180;55421;51.600;5.718;2024-02-23T13:35:37;162301.20;;;8.00
68440;BMP180;55421;51.600;5.718;2024-02-23T13:38:05;161700.20;;;8.00
68440;BMP180;55421;51.600;5.718;2024-02-23T13:40:31;160424.59;;;8.00
68440;BMP180;55421;51.600;5.718;2024-02-23T13:42:58;161260.80;;;8.00
68440;BMP180;55421;51.600;5.718;2024-02-23T13:45:25;160836.00;;;8.00
68440;BMP180;55421;51.600;5.718;2024-02-23T13:48:01;160784.00;;;8.00
68440;BMP180;55421;51.600;5.718;2024-02-23T13:50:28;160382.59;;;8.00
68440;BMP180;55421;51.600;5.718;2024-02-23T13:52:55;159729.00;;;8.00
68440;BMP180;55421;51.600;5.718;2024-02-23T13:55:22;160206.00;;;7.90
68440;BMP180;55421;51.600;5.718;2024-02-23T13:57:50;161153.41;;;7.82
68440;BMP180;55421;51.600;5.718;2024-02-23T14:00:20;162127.80;;;7.80
68440;BMP180;55421;51.600;5.718;2024-02-23T14:02:47;162592.80;;;7.80
68440;BMP180;55421;51.600;5.718;2024-02-23T14:05:14;163196.00;;;7.84
68440;BMP180;55421;51.600;5.718;2024-02-23T14:07:48;163542.20;;;7.90
68440;BMP180;55421;51.600;5.718;2024-02-23T14:10:15;163488.20;;;8.00